sensor_id;sensor_type;location;lat;lon;timestamp;P1;durP1;ratioP1;P2;durP2;ratioP2
67248;SDS011;63247;54.300;18.592;2023-04-01T00:01:03;38.78;;;5.78;;
67248;SDS011;63247;54.300;18.592;2023-04-01T00:03:29;22.20;;;4.67;;
67248;SDS011;63247;54.300;18.592;2023-04-01T00:05:56;30.83;;;5.70;;
67248;SDS011;63247;54.300;18.592;2023-04-01T00:08:22;43.95;;;7.55;;
67248;SDS011;63247;54.300;18.592;2023-04-01T00:10:49;30.77;;;6.60;;
67248;SDS011;63247;54.300;18.592;2023-04-01T00:13:14;30.70;;;6.80;;
67248;SDS011;63247;54.300;18.592;2023-04-01T00:15:40;30.33;;;8.00;;
67248;SDS011;63247;54.300;18.592;2023-04-01T00:18:06;23.33;;;6.30;;
67248;SDS011;63247;54.300;18.592;2023-04-01T00:20:31;23.50;;;6.57;;
67248;SDS011;63247;54.300;18.592;2023-04-01T00:22:57;55.03;;;8.20;;
67248;SDS011;63247;54.300;18.592;2023-04-01T00:25:22;27.43;;;6.87;;
67248;SDS011;63247;54.300;18.592;2023-04-01T00:27:48;35.17;;;7.53;;
67248;SDS011;63247;54.300;18.592;2023-04-01T00:30:15;25.83;;;5.93;;
67248;SDS011;63247;54.300;18.592;2023-04-01T00:32:41;36.17;;;6.18;;
67248;SDS011;63247;54.300;18.592;2023-04-01T00:35:06;20.60;;;4.60;;
67248;SDS011;63247;54.300;18.592;2023-04-01T00:37:34;13.47;;;4.40;;
67248;SDS011;63247;54.300;18.592;2023-04-01T00:40:02;37.92;;;4.57;;
67248;SDS011;63247;54.300;18.592;2023-04-01T00:42:29;46.53;;;5.75;;
67248;SDS011;63247;54.300;18.592;2023-04-01T00:44:54;13.97;;;3.97;;
67248;SDS011;63247;54.300;18.592;2023-04-01T00:47:20;29.05;;;4.28;;
67248;SDS011;63247;54.300;18.592;2023-04-01T00:49:48;22.80;;;4.07;;
67248;SDS011;63247;54.300;18.592;2023-04-01T00:52:17;12.50;;;3.08;;
67248;SDS011;63247;54.300;18.592;2023-04-01T00:54:47;44.70;;;5.95;;
67248;SDS011;63247;54.300;18.592;2023-04-01T00:57:34;27.77;;;5.80;;
67248;SDS011;63247;54.300;18.592;2023-04-01T01:00:04;35.00;;;5.32;;
67248;SDS011;63247;54.300;18.592;2023-04-01T01:02:32;36.20;;;6.30;;
67248;SDS011;63247;54.300;18.592;2023-04-01T01:04:58;28.90;;;6.53;;
67248;SDS011;63247;54.300;18.592;2023-04-01T01:15:41;26.98;;;7.00;;
67248;SDS011;63247;54.300;18.592;2023-04-01T01:37:43;27.33;;;8.55;;
67248;SDS011;63247;54.300;18.592;2023-04-01T01:40:11;28.50;;;9.30;;
67248;SDS011;63247;54.300;18.592;2023-04-01T01:42:39;28.35;;;9.88;;
67248;SDS011;63247;54.300;18.592;2023-04-01T01:45:08;25.13;;;8.25;;
67248;SDS011;63247;54.300;18.592;2023-04-01T01:47:36;29.00;;;9.73;;
67248;SDS011;63247;54.300;18.592;2023-04-01T01:50:02;33.17;;;9.93;;
67248;SDS011;63247;54.300;18.592;2023-04-01T01:52:29;26.23;;;9.00;;
67248;SDS011;63247;54.300;18.592;2023-04-01T01:54:56;29.93;;;9.93;;
67248;SDS011;63247;54.300;18.592;2023-04-01T01:57:23;31.38;;;10.60;;
67248;SDS011;63247;54.300;18.592;2023-04-01T01:59:52;21.90;;;7.57;;
67248;SDS011;63247;54.300;18.592;2023-04-01T02:02:21;26.33;;;8.90;;
67248;SDS011;63247;54.300;18.592;2023-04-01T02:04:48;21.45;;;7.75;;
67248;SDS011;63247;54.300;18.592;2023-04-01T02:07:19;23.13;;;8.03;;
67248;SDS011;63247;54.300;18.592;2023-04-01T02:09:48;20.75;;;7.32;;
67248;SDS011;63247;54.300;18.592;2023-04-01T02:12:15;22.60;;;8.25;;
67248;SDS011;63247;54.300;18.592;2023-04-01T02:17:34;24.40;;;8.45;;
67248;SDS011;63247;54.300;18.592;2023-04-01T02:20:06;19.77;;;7.87;;
67248;SDS011;63247;54.300;18.592;2023-04-01T02:22:40;25.05;;;8.95;;
67248;SDS011;63247;54.300;18.592;2023-04-01T02:25:10;21.58;;;8.20;;
67248;SDS011;63247;54.300;18.592;2023-04-01T02:27:38;24.85;;;9.50;;
67248;SDS011;63247;54.300;18.592;2023-04-01T02:30:05;27.85;;;9.85;;
67248;SDS011;63247;54.300;18.592;2023-04-01T02:32:32;18.17;;;6.50;;
67248;SDS011;63247;54.300;18.592;2023-04-01T02:34:59;12.65;;;4.40;;
67248;SDS011;63247;54.300;18.592;2023-04-01T02:37:28;19.38;;;7.93;;
67248;SDS011;63247;54.300;18.592;2023-04-01T02:39:53;19.73;;;7.47;;
67248;SDS011;63247;54.300;18.592;2023-04-01T02:42:19;15.23;;;6.15;;
67248;SDS011;63247;54.300;18.592;2023-04-01T02:44:44;17.20;;;6.32;;
67248;SDS011;63247;54.300;18.592;2023-04-01T02:47:10;18.43;;;7.60;;
67248;SDS011;63247;54.300;18.592;2023-04-01T02:49:35;14.40;;;6.03;;
67248;SDS011;63247;54.300;18.592;2023-04-01T02:52:00;22.43;;;8.27;;
67248;SDS011;63247;54.300;18.592;2023-04-01T02:54:26;19.35;;;7.22;;
67248;SDS011;63247;54.300;18.592;2023-04-01T02:56:51;20.65;;;7.95;;
67248;SDS011;63247;54.300;18.592;2023-04-01T02:59:17;20.47;;;7.90;;
67248;SDS011;63247;54.300;18.592;2023-04-01T03:01:42;21.43;;;8.60;;
67248;SDS011;63247;54.300;18.592;2023-04-01T03:04:07;14.53;;;6.30;;
67248;SDS011;63247;54.300;18.592;2023-04-01T03:06:33;19.50;;;7.90;;
67248;SDS011;63247;54.300;18.592;2023-04-01T03:08:58;20.95;;;8.23;;
67248;SDS011;63247;54.300;18.592;2023-04-01T03:11:24;19.53;;;7.80;;
67248;SDS011;63247;54.300;18.592;2023-04-01T03:13:51;20.25;;;8.45;;
67248;SDS011;63247;54.300;18.592;2023-04-01T03:16:16;19.20;;;6.97;;
67248;SDS011;63247;54.300;18.592;2023-04-01T03:18:41;18.90;;;6.87;;
67248;SDS011;63247;54.300;18.592;2023-04-01T03:21:14;17.87;;;6.30;;
67248;SDS011;63247;54.300;18.592;2023-04-01T03:23:40;17.85;;;6.60;;
67248;SDS011;63247;54.300;18.592;2023-04-01T03:26:06;17.73;;;7.33;;
67248;SDS011;63247;54.300;18.592;2023-04-01T03:28:31;18.43;;;7.33;;
67248;SDS011;63247;54.300;18.592;2023-04-01T03:30:57;20.20;;;8.00;;
67248;SDS011;63247;54.300;18.592;2023-04-01T03:33:22;17.73;;;7.27;;
67248;SDS011;63247;54.300;18.592;2023-04-01T03:35:47;17.07;;;6.90;;
67248;SDS011;63247;54.300;18.592;2023-04-01T03:38:13;19.50;;;7.67;;
67248;SDS011;63247;54.300;18.592;2023-04-01T03:40:42;16.88;;;6.82;;
67248;SDS011;63247;54.300;18.592;2023-04-01T03:43:07;20.83;;;7.53;;
67248;SDS011;63247;54.300;18.592;2023-04-01T03:45:34;15.77;;;6.10;;
67248;SDS011;63247;54.300;18.592;2023-04-01T03:48:00;16.67;;;7.10;;
67248;SDS011;63247;54.300;18.592;2023-04-01T03:50:26;17.47;;;6.87;;
67248;SDS011;63247;54.300;18.592;2023-04-01T03:52:51;14.30;;;4.72;;
67248;SDS011;63247;54.300;18.592;2023-04-01T03:55:16;16.13;;;6.57;;
67248;SDS011;63247;54.300;18.592;2023-04-01T03:57:43;16.67;;;6.10;;
67248;SDS011;63247;54.300;18.592;2023-04-01T04:00:09;17.38;;;7.10;;
67248;SDS011;63247;54.300;18.592;2023-04-01T04:02:35;19.85;;;8.38;;
67248;SDS011;63247;54.300;18.592;2023-04-01T04:05:01;18.00;;;7.40;;
67248;SDS011;63247;54.300;18.592;2023-04-01T04:07:26;15.27;;;6.05;;
67248;SDS011;63247;54.300;18.592;2023-04-01T04:09:52;14.13;;;5.93;;
67248;SDS011;63247;54.300;18.592;2023-04-01T04:12:17;18.77;;;7.00;;
67248;SDS011;63247;54.300;18.592;2023-04-01T04:14:42;14.43;;;6.27;;
67248;SDS011;63247;54.300;18.592;2023-04-01T04:17:09;16.02;;;6.32;;
67248;SDS011;63247;54.300;18.592;2023-04-01T04:19:41;17.48;;;6.38;;
67248;SDS011;63247;54.300;18.592;2023-04-01T04:22:06;18.88;;;7.82;;
67248;SDS011;63247;54.300;18.592;2023-04-01T04:24:33;20.20;;;7.87;;
67248;SDS011;63247;54.300;18.592;2023-04-01T04:26:59;12.27;;;4.80;;
67248;SDS011;63247;54.300;18.592;2023-04-01T04:29:25;24.30;;;7.23;;
67248;SDS011;63247;54.300;18.592;2023-04-01T04:31:50;23.23;;;8.83;;
67248;SDS011;63247;54.300;18.592;2023-04-01T04:34:15;28.48;;;9.35;;
67248;SDS011;63247;54.300;18.592;2023-04-01T04:36:41;14.00;;;5.95;;
67248;SDS011;63247;54.300;18.592;2023-04-01T04:39:06;27.10;;;9.63;;
67248;SDS011;63247;54.300;18.592;2023-04-01T04:41:32;22.57;;;8.27;;
67248;SDS011;63247;54.300;18.592;2023-04-01T04:43:57;22.50;;;8.13;;
67248;SDS011;63247;54.300;18.592;2023-04-01T04:46:23;26.02;;;9.75;;
67248;SDS011;63247;54.300;18.592;2023-04-01T04:48:49;29.48;;;10.18;;
67248;SDS011;63247;54.300;18.592;2023-04-01T04:51:16;29.03;;;9.20;;
67248;SDS011;63247;54.300;18.592;2023-04-01T04:53:43;26.75;;;9.40;;
67248;SDS011;63247;54.300;18.592;2023-04-01T04:56:09;24.42;;;9.27;;
67248;SDS011;63247;54.300;18.592;2023-04-01T04:58:34;20.73;;;7.60;;
67248;SDS011;63247;54.300;18.592;2023-04-01T05:01:10;27.85;;;9.70;;
67248;SDS011;63247;54.300;18.592;2023-04-01T05:03:37;18.20;;;5.65;;
67248;SDS011;63247;54.300;18.592;2023-04-01T05:06:03;19.90;;;6.83;;
67248;SDS011;63247;54.300;18.592;2023-04-01T05:08:29;16.50;;;6.25;;
67248;SDS011;63247;54.300;18.592;2023-04-01T05:10:55;18.73;;;5.87;;
67248;SDS011;63247;54.300;18.592;2023-04-01T05:13:20;16.20;;;5.33;;
67248;SDS011;63247;54.300;18.592;2023-04-01T05:15:46;16.67;;;5.57;;
67248;SDS011;63247;54.300;18.592;2023-04-01T05:18:11;27.65;;;6.78;;
67248;SDS011;63247;54.300;18.592;2023-04-01T05:20:37;26.83;;;7.27;;
67248;SDS011;63247;54.300;18.592;2023-04-01T05:23:02;26.80;;;4.80;;
67248;SDS011;63247;54.300;18.592;2023-04-01T05:25:28;15.80;;;3.25;;
67248;SDS011;63247;54.300;18.592;2023-04-01T05:27:53;23.87;;;6.23;;
67248;SDS011;63247;54.300;18.592;2023-04-01T05:30:19;35.77;;;4.93;;
67248;SDS011;63247;54.300;18.592;2023-04-01T05:32:44;54.50;;;6.07;;
67248;SDS011;63247;54.300;18.592;2023-04-01T05:35:10;36.42;;;5.07;;
67248;SDS011;63247;54.300;18.592;2023-04-01T05:37:36;28.97;;;5.20;;
67248;SDS011;63247;54.300;18.592;2023-04-01T05:40:02;26.05;;;4.65;;
67248;SDS011;63247;54.300;18.592;2023-04-01T05:42:28;38.88;;;6.65;;
67248;SDS011;63247;54.300;18.592;2023-04-01T05:44:54;43.30;;;6.73;;
67248;SDS011;63247;54.300;18.592;2023-04-01T05:47:20;25.95;;;5.07;;
67248;SDS011;63247;54.300;18.592;2023-04-01T05:49:47;39.93;;;5.73;;
67248;SDS011;63247;54.300;18.592;2023-04-01T05:52:12;42.42;;;5.47;;
67248;SDS011;63247;54.300;18.592;2023-04-01T05:54:38;18.90;;;3.77;;
67248;SDS011;63247;54.300;18.592;2023-04-01T05:57:03;62.90;;;6.50;;
67248;SDS011;63247;54.300;18.592;2023-04-01T05:59:29;47.08;;;4.53;;
67248;SDS011;63247;54.300;18.592;2023-04-01T06:01:56;54.23;;;5.77;;
67248;SDS011;63247;54.300;18.592;2023-04-01T06:04:22;45.65;;;4.57;;
67248;SDS011;63247;54.300;18.592;2023-04-01T06:06:47;85.73;;;6.13;;
67248;SDS011;63247;54.300;18.592;2023-04-01T06:09:16;18.60;;;2.92;;
67248;SDS011;63247;54.300;18.592;2023-04-01T06:20:11;9.85;;;2.67;;
67248;SDS011;63247;54.300;18.592;2023-04-01T06:23:19;14.68;;;2.28;;
67248;SDS011;63247;54.300;18.592;2023-04-01T06:31:35;35.28;;;4.93;;
67248;SDS011;63247;54.300;18.592;2023-04-01T06:55:42;10.77;;;2.60;;
67248;SDS011;63247;54.300;18.592;2023-04-01T06:58:25;5.35;;;2.13;;
67248;SDS011;63247;54.300;18.592;2023-04-01T07:00:59;5.35;;;2.17;;
67248;SDS011;63247;54.300;18.592;2023-04-01T07:09:26;5.57;;;2.10;;
67248;SDS011;63247;54.300;18.592;2023-04-01T07:11:59;5.88;;;1.67;;
67248;SDS011;63247;54.300;18.592;2023-04-01T07:14:35;6.93;;;2.03;;
67248;SDS011;63247;54.300;18.592;2023-04-01T07:17:09;5.07;;;1.63;;
67248;SDS011;63247;54.300;18.592;2023-04-01T07:19:47;5.70;;;1.23;;
67248;SDS011;63247;54.300;18.592;2023-04-01T07:22:40;5.68;;;1.58;;
67248;SDS011;63247;54.300;18.592;2023-04-01T07:28:05;5.35;;;2.22;;
67248;SDS011;63247;54.300;18.592;2023-04-01T07:31:20;6.38;;;2.22;;
67248;SDS011;63247;54.300;18.592;2023-04-01T07:33:43;5.23;;;2.20;;
67248;SDS011;63247;54.300;18.592;2023-04-01T07:36:25;5.57;;;1.67;;
67248;SDS011;63247;54.300;18.592;2023-04-01T07:47:01;4.53;;;1.70;;
67248;SDS011;63247;54.300;18.592;2023-04-01T07:52:15;6.72;;;2.30;;
67248;SDS011;63247;54.300;18.592;2023-04-01T07:54:53;7.47;;;2.13;;
67248;SDS011;63247;54.300;18.592;2023-04-01T07:57:30;5.85;;;2.60;;
67248;SDS011;63247;54.300;18.592;2023-04-01T08:00:24;5.67;;;1.93;;
67248;SDS011;63247;54.300;18.592;2023-04-01T08:05:53;3.67;;;1.17;;
67248;SDS011;63247;54.300;18.592;2023-04-01T08:11:04;4.63;;;1.77;;
67248;SDS011;63247;54.300;18.592;2023-04-01T08:14:02;4.53;;;1.67;;
67248;SDS011;63247;54.300;18.592;2023-04-01T08:16:38;5.90;;;2.20;;
67248;SDS011;63247;54.300;18.592;2023-04-01T08:19:21;7.57;;;1.20;;
67248;SDS011;63247;54.300;18.592;2023-04-01T08:22:29;4.72;;;1.70;;
67248;SDS011;63247;54.300;18.592;2023-04-01T08:25:05;3.13;;;1.13;;
67248;SDS011;63247;54.300;18.592;2023-04-01T08:27:37;6.43;;;2.13;;
67248;SDS011;63247;54.300;18.592;2023-04-01T08:32:36;5.22;;;1.90;;
67248;SDS011;63247;54.300;18.592;2023-04-01T08:35:19;6.90;;;2.30;;
67248;SDS011;63247;54.300;18.592;2023-04-01T08:37:57;6.00;;;2.08;;
67248;SDS011;63247;54.300;18.592;2023-04-01T08:40:50;4.27;;;1.70;;
67248;SDS011;63247;54.300;18.592;2023-04-01T08:45:57;4.03;;;1.63;;
67248;SDS011;63247;54.300;18.592;2023-04-01T08:48:57;2.80;;;0.98;;
67248;SDS011;63247;54.300;18.592;2023-04-01T08:51:54;3.40;;;1.42;;
67248;SDS011;63247;54.300;18.592;2023-04-01T08:54:46;5.43;;;1.47;;
67248;SDS011;63247;54.300;18.592;2023-04-01T08:57:25;8.93;;;2.10;;
67248;SDS011;63247;54.300;18.592;2023-04-01T09:08:19;6.40;;;1.93;;
67248;SDS011;63247;54.300;18.592;2023-04-01T09:19:56;4.55;;;1.27;;
67248;SDS011;63247;54.300;18.592;2023-04-01T09:31:24;3.13;;;1.17;;
67248;SDS011;63247;54.300;18.592;2023-04-01T09:42:06;5.55;;;1.48;;
67248;SDS011;63247;54.300;18.592;2023-04-01T09:44:58;6.82;;;1.90;;
67248;SDS011;63247;54.300;18.592;2023-04-01T09:55:47;10.38;;;3.90;;
67248;SDS011;63247;54.300;18.592;2023-04-01T10:35:07;3.67;;;1.20;;
67248;SDS011;63247;54.300;18.592;2023-04-01T10:50:24;5.53;;;1.35;;
67248;SDS011;63247;54.300;18.592;2023-04-01T11:15:35;4.47;;;1.10;;
67248;SDS011;63247;54.300;18.592;2023-04-01T11:30:08;5.70;;;1.60;;
67248;SDS011;63247;54.300;18.592;2023-04-01T11:38:39;4.13;;;1.33;;
67248;SDS011;63247;54.300;18.592;2023-04-01T11:49:28;3.75;;;0.93;;
67248;SDS011;63247;54.300;18.592;2023-04-01T12:29:53;3.10;;;0.93;;
67248;SDS011;63247;54.300;18.592;2023-04-01T12:32:40;3.50;;;1.17;;
67248;SDS011;63247;54.300;18.592;2023-04-01T12:35:24;3.40;;;1.00;;
67248;SDS011;63247;54.300;18.592;2023-04-01T12:44:26;4.85;;;1.40;;
67248;SDS011;63247;54.300;18.592;2023-04-01T12:55:38;3.10;;;0.90;;
67248;SDS011;63247;54.300;18.592;2023-04-01T13:01:08;2.70;;;1.05;;
67248;SDS011;63247;54.300;18.592;2023-04-01T13:17:48;2.08;;;0.75;;
67248;SDS011;63247;54.300;18.592;2023-04-01T13:33:43;3.20;;;1.03;;
67248;SDS011;63247;54.300;18.592;2023-04-01T13:36:19;3.53;;;0.90;;
67248;SDS011;63247;54.300;18.592;2023-04-01T13:44:00;4.43;;;1.40;;
67248;SDS011;63247;54.300;18.592;2023-04-01T13:46:41;3.00;;;1.00;;
67248;SDS011;63247;54.300;18.592;2023-04-01T14:11:37;11.00;;;2.55;;
67248;SDS011;63247;54.300;18.592;2023-04-01T14:25:50;4.63;;;1.67;;
67248;SDS011;63247;54.300;18.592;2023-04-01T14:31:34;8.32;;;2.78;;
67248;SDS011;63247;54.300;18.592;2023-04-01T14:34:11;5.35;;;1.73;;
67248;SDS011;63247;54.300;18.592;2023-04-01T14:45:44;4.63;;;2.17;;
67248;SDS011;63247;54.300;18.592;2023-04-01T14:48:39;6.40;;;2.17;;
67248;SDS011;63247;54.300;18.592;2023-04-01T14:51:31;4.78;;;1.85;;
67248;SDS011;63247;54.300;18.592;2023-04-01T14:54:04;6.10;;;2.08;;
67248;SDS011;63247;54.300;18.592;2023-04-01T14:56:40;5.30;;;1.73;;
67248;SDS011;63247;54.300;18.592;2023-04-01T15:01:50;7.95;;;3.63;;
67248;SDS011;63247;54.300;18.592;2023-04-01T15:18:45;6.13;;;2.80;;
67248;SDS011;63247;54.300;18.592;2023-04-01T15:21:26;9.55;;;3.33;;
67248;SDS011;63247;54.300;18.592;2023-04-01T15:26:47;10.55;;;3.65;;
67248;SDS011;63247;54.300;18.592;2023-04-01T15:35:37;7.60;;;2.90;;
67248;SDS011;63247;54.300;18.592;2023-04-01T15:37:47;10.97;;;4.00;;
67248;SDS011;63247;54.300;18.592;2023-04-01T15:51:37;11.90;;;4.40;;
67248;SDS011;63247;54.300;18.592;2023-04-01T16:02:23;10.98;;;3.85;;
67248;SDS011;63247;54.300;18.592;2023-04-01T16:05:04;8.40;;;2.83;;
67248;SDS011;63247;54.300;18.592;2023-04-01T16:07:48;7.93;;;2.70;;
67248;SDS011;63247;54.300;18.592;2023-04-01T16:10:35;24.75;;;6.53;;
67248;SDS011;63247;54.300;18.592;2023-04-01T16:19:15;24.17;;;6.63;;
67248;SDS011;63247;54.300;18.592;2023-04-01T16:21:56;11.55;;;3.97;;
67248;SDS011;63247;54.300;18.592;2023-04-01T16:29:53;20.90;;;6.20;;
67248;SDS011;63247;54.300;18.592;2023-04-01T16:43:16;11.52;;;3.72;;
67248;SDS011;63247;54.300;18.592;2023-04-01T17:02:22;7.18;;;2.75;;
67248;SDS011;63247;54.300;18.592;2023-04-01T17:18:13;10.82;;;3.45;;
67248;SDS011;63247;54.300;18.592;2023-04-01T17:21:16;10.43;;;4.57;;
67248;SDS011;63247;54.300;18.592;2023-04-01T17:23:53;9.10;;;3.63;;
67248;SDS011;63247;54.300;18.592;2023-04-01T17:29:23;8.02;;;3.50;;
67248;SDS011;63247;54.300;18.592;2023-04-01T17:40:11;15.90;;;4.80;;
67248;SDS011;63247;54.300;18.592;2023-04-01T17:43:05;9.00;;;3.75;;
67248;SDS011;63247;54.300;18.592;2023-04-01T17:46:10;13.60;;;4.60;;
67248;SDS011;63247;54.300;18.592;2023-04-01T17:51:39;10.32;;;3.70;;
67248;SDS011;63247;54.300;18.592;2023-04-01T17:59:34;13.77;;;3.88;;
67248;SDS011;63247;54.300;18.592;2023-04-01T18:04:48;11.95;;;4.65;;
67248;SDS011;63247;54.300;18.592;2023-04-01T18:07:29;10.23;;;4.40;;
67248;SDS011;63247;54.300;18.592;2023-04-01T18:10:20;12.13;;;4.35;;
67248;SDS011;63247;54.300;18.592;2023-04-01T18:18:49;9.73;;;3.63;;
67248;SDS011;63247;54.300;18.592;2023-04-01T18:27:22;13.63;;;5.50;;
67248;SDS011;63247;54.300;18.592;2023-04-01T18:29:54;12.95;;;5.22;;
67248;SDS011;63247;54.300;18.592;2023-04-01T18:41:14;8.90;;;2.90;;
67248;SDS011;63247;54.300;18.592;2023-04-01T18:52:13;12.80;;;4.43;;
67248;SDS011;63247;54.300;18.592;2023-04-01T18:54:49;11.30;;;4.97;;
67248;SDS011;63247;54.300;18.592;2023-04-01T18:57:45;14.98;;;6.45;;
67248;SDS011;63247;54.300;18.592;2023-04-01T19:00:35;10.98;;;4.80;;
67248;SDS011;63247;54.300;18.592;2023-04-01T19:03:21;10.40;;;3.77;;
67248;SDS011;63247;54.300;18.592;2023-04-01T19:05:51;12.38;;;4.05;;
67248;SDS011;63247;54.300;18.592;2023-04-01T19:08:28;8.73;;;3.30;;
67248;SDS011;63247;54.300;18.592;2023-04-01T19:16:19;7.60;;;2.73;;
67248;SDS011;63247;54.300;18.592;2023-04-01T19:21:29;13.68;;;4.93;;
67248;SDS011;63247;54.300;18.592;2023-04-01T19:37:54;5.20;;;2.50;;
67248;SDS011;63247;54.300;18.592;2023-04-01T19:43:17;10.30;;;4.40;;
67248;SDS011;63247;54.300;18.592;2023-04-01T19:46:13;8.23;;;2.45;;
67248;SDS011;63247;54.300;18.592;2023-04-01T19:57:21;6.13;;;2.65;;
67248;SDS011;63247;54.300;18.592;2023-04-01T20:08:36;5.15;;;2.30;;
67248;SDS011;63247;54.300;18.592;2023-04-01T20:16:22;3.78;;;1.75;;
67248;SDS011;63247;54.300;18.592;2023-04-01T20:19:25;8.80;;;3.20;;
67248;SDS011;63247;54.300;18.592;2023-04-01T20:21:51;9.77;;;2.90;;
67248;SDS011;63247;54.300;18.592;2023-04-01T20:27:02;4.85;;;2.22;;
67248;SDS011;63247;54.300;18.592;2023-04-01T20:35:45;5.78;;;2.03;;
67248;SDS011;63247;54.300;18.592;2023-04-01T20:38:22;5.25;;;1.73;;
67248;SDS011;63247;54.300;18.592;2023-04-01T20:41:03;5.63;;;1.88;;
67248;SDS011;63247;54.300;18.592;2023-04-01T20:43:55;8.20;;;2.53;;
67248;SDS011;63247;54.300;18.592;2023-04-01T20:46:25;5.73;;;1.57;;
67248;SDS011;63247;54.300;18.592;2023-04-01T21:05:27;8.70;;;2.78;;
67248;SDS011;63247;54.300;18.592;2023-04-01T21:15:42;8.07;;;2.60;;
67248;SDS011;63247;54.300;18.592;2023-04-01T21:34:48;10.77;;;3.67;;
67248;SDS011;63247;54.300;18.592;2023-04-01T21:37:29;7.30;;;3.13;;
67248;SDS011;63247;54.300;18.592;2023-04-01T21:46:10;6.70;;;2.03;;
67248;SDS011;63247;54.300;18.592;2023-04-01T22:00:42;7.53;;;3.00;;
67248;SDS011;63247;54.300;18.592;2023-04-01T22:03:38;10.38;;;2.65;;
67248;SDS011;63247;54.300;18.592;2023-04-01T22:06:37;11.67;;;2.40;;
67248;SDS011;63247;54.300;18.592;2023-04-01T22:14:31;7.50;;;2.42;;
67248;SDS011;63247;54.300;18.592;2023-04-01T22:20:40;8.07;;;2.20;;
67248;SDS011;63247;54.300;18.592;2023-04-01T22:22:57;6.97;;;2.10;;
67248;SDS011;63247;54.300;18.592;2023-04-01T22:28:34;7.22;;;2.30;;
67248;SDS011;63247;54.300;18.592;2023-04-01T22:31:06;6.03;;;1.85;;
67248;SDS011;63247;54.300;18.592;2023-04-01T22:33:41;4.77;;;1.60;;
67248;SDS011;63247;54.300;18.592;2023-04-01T22:46:56;4.40;;;1.53;;
67248;SDS011;63247;54.300;18.592;2023-04-01T22:49:51;6.70;;;2.10;;
67248;SDS011;63247;54.300;18.592;2023-04-01T22:55:04;4.28;;;1.75;;
67248;SDS011;63247;54.300;18.592;2023-04-01T22:57:52;6.95;;;2.20;;
67248;SDS011;63247;54.300;18.592;2023-04-01T23:00:24;5.43;;;1.67;;
67248;SDS011;63247;54.300;18.592;2023-04-01T23:03:04;4.68;;;1.52;;
67248;SDS011;63247;54.300;18.592;2023-04-01T23:05:31;4.80;;;1.73;;
67248;SDS011;63247;54.300;18.592;2023-04-01T23:11:05;9.75;;;2.20;;
67248;SDS011;63247;54.300;18.592;2023-04-01T23:13:37;6.60;;;2.13;;
67248;SDS011;63247;54.300;18.592;2023-04-01T23:16:06;3.75;;;1.42;;
67248;SDS011;63247;54.300;18.592;2023-04-01T23:18:35;7.00;;;2.28;;
67248;SDS011;63247;54.300;18.592;2023-04-01T23:21:13;7.22;;;1.92;;
67248;SDS011;63247;54.300;18.592;2023-04-01T23:29:01;5.50;;;2.00;;
67248;SDS011;63247;54.300;18.592;2023-04-01T23:31:31;7.63;;;1.80;;
67248;SDS011;63247;54.300;18.592;2023-04-01T23:34:03;4.50;;;1.48;;
67248;SDS011;63247;54.300;18.592;2023-04-01T23:36:50;6.65;;;1.70;;
67248;SDS011;63247;54.300;18.592;2023-04-01T23:44:38;3.33;;;1.35;;
67248;SDS011;63247;54.300;18.592;2023-04-01T23:47:05;2.95;;;0.80;;
67248;SDS011;63247;54.300;18.592;2023-04-01T23:49:35;5.40;;;1.13;;
67248;SDS011;63247;54.300;18.592;2023-04-01T23:52:13;2.37;;;0.70;;
67248;SDS011;63247;54.300;18.592;2023-04-01T23:54:54;4.63;;;1.10;;
67248;SDS011;63247;54.300;18.592;2023-04-01T23:57:30;4.13;;;1.10;;
